Jamestown Regional Airport

Airport
ICAO code: 
KJMS
Summary
ICAO Region: 
NAM
Territory: 
Location: 
Jamestown, North Dakota,
Coordinates: 
Aerial View: 
46° 55' 35.03" N, 98° 40' 43.568" W
Airport CFIT: 
Altimeter Temperature Error Correction
Airport WX: 
Cumulonimbus
Metar
Observation
KJMS 020856Z AUTO 31011KT 10SM OVC090 04/M03 A2981 RMK AO2 SLP100 T00441033 53022
Station
Jamestown, Jamestown Municipal Airport
Date/Time
2021-12-02 08:56:00
Wind direction
310°
Wind speed
11 kts
Lowest cloud amount
overcast
Temperature
4.4°C
Dew point
-3.3°C
Humidity
57%
Weather condition
n/a

Description

Jamestown Regional Airport is a public use airport located 4 km northeast of the central business district of Jamestown, a city in Stutsman County, North Dakota.

Climatology

Humid Continental climate (Köppen climate classification Dfb) - Variable weather patterns and a large seasonal temperature variance. Summers are often warm and humid with frequent thunderstorms and winters can be very cold with frequent snowfall and persistent snow cover.

Runways

Designator Length Width Surface Rops
4/22 1752 23 ASP Yes/Yes
13/31 1981 30 ASP Yes/Yes
Airport map: 
Aerial View: 

SKYbrary Partners:

Safety knowledge contributed by: